KSHR/SHR METAR and TAF weather

Enter ICAO airport designator
Station Type Date Time Source
KSHR METAR 2022/12/04 11:53 UTC NOAA

KSHR 041153Z AUTO 00000KT 10SM CLR M14/M20 A3004 RMK AO2 SLP248 T11441200 11078 21150 56027


Station Type Date Time Source
KSHR Decoded METAR 2022/12/04 11:53 UTC NOAA

SHERIDAN COUNTY AIRPORT, WY, United States (KSHR) 44-46N 106-58W 1202M
Dec 04, 2022 - 06:53 AM EST / 2022.12.04 1153 UTC
Wind: Calm:0
Visibility: 10 mile(s):0
Sky conditions: clear
Temperature: 6.1 F (-14.4 C)
Dew Point: -4.0 F (-20.0 C)
Relative Humidity: 62%
Pressure (altimeter): 30.04 in. Hg (1017 hPa)
Pressure tendency: 0.08 inches (2.7 hPa) lower than three hours ago
ob: KSHR 041153Z AUTO 00000KT 10SM CLR M14/M20 A3004 RMK AO2 SLP248 T11441200 11078 21150 56027
cycle: 12

Station Type Date Time Source
KSHR TAF 2022/12/04 12:33 UTC NOAA

TAF KSHR 041131Z 0412/0512 VRB06KT P6SM FEW200
FM042200 VRB06KT P6SM BKN100
FM050000 VRB06KT P6SM VCSH BKN100
FM050700 VRB06KT P6SM -SN OVC030

Example: see airport list